createdAt,value
2024-02-19T00:02:32.526Z,97288.31
2024-02-19T00:07:38.158Z,97295.13
2024-02-19T00:12:41.069Z,97299.50
2024-02-19T00:17:44.038Z,97302.16
2024-02-19T00:22:46.846Z,97312.38
2024-02-19T00:27:50.580Z,97305.50
2024-02-19T00:32:54.168Z,97300.38
2024-02-19T00:37:56.913Z,97303.59
2024-02-19T00:42:59.586Z,97299.03
2024-02-19T00:48:02.409Z,97290.59
2024-02-19T00:53:07.321Z,97294.59
2024-02-19T00:58:10.072Z,97298.41
2024-02-19T01:03:12.822Z,97276.69
2024-02-19T01:08:20.608Z,97260.31
2024-02-19T01:13:23.651Z,97271.22
2024-02-19T01:18:26.272Z,97258.94
2024-02-19T01:23:33.683Z,97251.91
2024-02-19T01:28:36.598Z,97251.66
2024-02-19T01:33:40.092Z,97249.13
2024-02-19T01:38:43.754Z,97237.63
2024-02-19T01:43:50.542Z,97241.91
2024-02-19T01:48:53.634Z,97224.66
2024-02-19T01:53:59.894Z,97228.72
2024-02-19T01:59:04.249Z,97225.06
2024-02-19T02:04:13.177Z,97220.75
2024-02-19T02:09:16.552Z,97212.00
2024-02-19T02:14:18.855Z,97219.88
2024-02-19T02:19:21.684Z,97222.66
2024-02-19T02:24:24.395Z,97201.19
2024-02-19T02:29:27.541Z,97198.50
2024-02-19T02:34:29.818Z,97200.91
2024-02-19T02:39:34.643Z,97193.84
2024-02-19T02:44:37.381Z,97190.28
2024-02-19T02:49:40.256Z,97190.84
2024-02-19T02:54:43.520Z,97178.88
2024-02-19T02:59:46.575Z,97193.50
2024-02-19T03:04:51.448Z,97190.94
2024-02-19T03:09:55.045Z,97186.00
2024-02-19T03:14:57.913Z,97182.50
2024-02-19T03:20:00.239Z,97188.53
2024-02-19T03:25:03.047Z,97178.81
2024-02-19T03:30:06.371Z,97178.88
2024-02-19T03:35:09.316Z,97177.16
2024-02-19T03:40:12.527Z,97180.56
2024-02-19T03:45:14.847Z,97167.78
2024-02-19T03:50:18.874Z,97179.66
2024-02-19T03:55:21.341Z,97169.41
2024-02-19T04:00:24.350Z,97174.75
2024-02-19T04:05:26.669Z,97167.38
2024-02-19T04:10:29.095Z,97172.81
2024-02-19T04:15:35.750Z,97164.69
2024-02-19T04:20:38.020Z,97159.09
2024-02-19T04:25:44.757Z,97170.28
2024-02-19T04:30:47.710Z,97149.53
2024-02-19T04:35:50.580Z,97168.25
2024-02-19T04:40:53.337Z,97155.22
2024-02-19T04:45:57.813Z,97159.78
2024-02-19T04:51:00.569Z,97152.13
2024-02-19T04:56:03.714Z,97166.91
2024-02-19T05:01:06.464Z,97160.03
2024-02-19T05:06:09.390Z,97163.69
2024-02-19T05:11:12.301Z,97160.91
2024-02-19T05:16:15.428Z,97172.16
2024-02-19T05:21:17.695Z,97166.69
2024-02-19T05:26:30.353Z,97172.47
2024-02-19T05:31:35.298Z,97168.19
2024-02-19T05:36:37.918Z,97179.16
2024-02-19T05:41:41.140Z,97176.88
2024-02-19T05:46:44.744Z,97183.38
2024-02-19T05:51:47.309Z,97169.94
2024-02-19T05:56:50.591Z,97169.03
2024-02-19T06:01:53.965Z,97170.19
2024-02-19T06:06:56.825Z,97173.25
2024-02-19T06:11:59.925Z,97175.38
2024-02-19T06:17:02.537Z,97167.16
2024-02-19T06:22:05.760Z,97151.47
2024-02-19T06:27:08.548Z,97168.13
2024-02-19T06:32:15.985Z,97150.16
2024-02-19T06:37:19.032Z,97163.88
2024-02-19T06:42:21.325Z,97157.41
2024-02-19T06:47:23.985Z,97157.09
2024-02-19T06:52:26.938Z,97153.69
2024-02-19T06:57:29.972Z,97154.06
2024-02-19T07:02:32.782Z,97149.56
2024-02-19T07:07:35.638Z,97146.59
2024-02-19T07:12:40.279Z,97159.13
2024-02-19T07:17:43.178Z,97140.78
2024-02-19T07:22:45.670Z,97144.75
2024-02-19T07:27:48.379Z,97140.09
2024-02-19T07:32:50.800Z,97149.09
2024-02-19T07:37:53.628Z,97151.38
2024-02-19T07:42:56.435Z,97144.75
2024-02-19T07:47:59.049Z,97138.16
2024-02-19T07:53:05.881Z,97149.22
2024-02-19T07:58:08.240Z,97146.63
2024-02-19T08:03:11.695Z,97137.16
2024-02-19T08:08:14.408Z,97130.75
2024-02-19T08:13:17.633Z,97122.69
2024-02-19T08:18:22.020Z,97120.47
2024-02-19T08:23:24.467Z,97121.19
2024-02-19T08:28:26.835Z,97117.28
2024-02-19T08:33:29.468Z,97126.16
2024-02-19T08:38:32.708Z,97117.44
2024-02-19T08:43:37.470Z,97120.72
2024-02-19T08:48:40.350Z,97111.84
2024-02-19T08:53:44.035Z,97116.44
2024-02-19T08:58:47.429Z,97116.00
2024-02-19T09:03:50.304Z,97113.41
2024-02-19T09:08:53.168Z,97118.91
2024-02-19T09:13:55.700Z,97119.16
2024-02-19T09:19:07.234Z,97119.47
2024-02-19T09:24:12.805Z,97121.72
2024-02-19T09:29:18.972Z,97116.78
2024-02-19T09:34:21.846Z,97108.72
2024-02-19T09:39:24.329Z,97108.25
2024-02-19T09:44:26.915Z,97105.59
2024-02-19T09:49:32.189Z,97102.97
2024-02-19T09:54:34.720Z,97090.66
2024-02-19T10:00:05.991Z,97097.78
2024-02-19T10:05:14.565Z,97095.13
2024-02-19T10:10:17.634Z,97089.78
2024-02-19T10:15:20.450Z,97087.72
2024-02-19T10:20:23.238Z,97083.81
2024-02-19T10:25:28.642Z,97064.75
2024-02-19T10:30:31.475Z,97071.63
2024-02-19T10:35:37.198Z,97066.75
2024-02-19T10:40:39.733Z,97048.16
2024-02-19T10:45:43.000Z,97055.41
2024-02-19T10:50:49.407Z,97052.09
2024-02-19T10:55:56.951Z,97052.09
2024-02-19T11:01:06.048Z,97030.25
2024-02-19T11:06:09.161Z,97022.81
2024-02-19T11:11:11.797Z,97025.97
2024-02-19T11:16:20.791Z,97019.50
2024-02-19T11:21:23.797Z,97021.75
2024-02-19T11:26:27.686Z,97015.72
2024-02-19T11:31:32.987Z,97016.66
2024-02-19T11:36:37.687Z,96998.75
2024-02-19T11:41:45.200Z,96992.03
2024-02-19T11:46:48.900Z,96982.47
2024-02-19T11:51:57.582Z,96989.34
2024-02-19T11:57:10.951Z,96980.41
2024-02-19T12:02:14.186Z,96972.75
2024-02-19T12:07:17.284Z,96977.41
2024-02-19T12:12:22.301Z,96959.00
2024-02-19T12:17:24.716Z,96970.69
2024-02-19T12:22:27.793Z,96956.22
2024-02-19T12:27:30.610Z,96964.25
2024-02-19T12:32:33.595Z,96946.81
2024-02-19T12:37:36.372Z,96927.81
2024-02-19T12:42:38.769Z,96944.72
2024-02-19T12:47:42.392Z,96935.31
2024-02-19T12:52:45.169Z,96926.81
2024-02-19T12:57:48.092Z,96923.44
2024-02-19T13:02:54.496Z,96919.19
2024-02-19T13:07:57.583Z,96926.28
2024-02-19T13:13:00.444Z,96908.91
2024-02-19T13:18:06.916Z,96906.09
2024-02-19T13:23:09.814Z,96918.88
2024-02-19T13:28:12.796Z,96900.22
2024-02-19T13:33:19.676Z,96905.97
2024-02-19T13:38:23.229Z,96902.31
2024-02-19T13:43:28.434Z,96907.56
2024-02-19T13:48:31.413Z,96896.66
2024-02-19T13:53:34.366Z,96908.16
2024-02-19T13:58:38.992Z,96899.28
2024-02-19T14:03:42.862Z,96900.13
2024-02-19T14:08:46.064Z,96896.97
2024-02-19T14:13:57.473Z,96881.88
2024-02-19T14:19:04.712Z,96904.47
2024-02-19T14:24:09.534Z,96902.94
2024-02-19T14:29:14.784Z,96909.66
2024-02-19T14:34:17.492Z,96895.75
2024-02-19T14:39:21.924Z,96897.34
2024-02-19T14:44:24.648Z,96894.59
2024-02-19T14:49:27.087Z,96904.53
2024-02-19T14:54:31.180Z,96901.91
2024-02-19T14:59:33.501Z,96901.34
2024-02-19T15:04:40.063Z,96902.47
2024-02-19T15:09:43.203Z,96904.16
2024-02-19T15:14:48.013Z,96906.91
2024-02-19T15:19:51.003Z,96900.91
2024-02-19T15:24:53.787Z,96906.03
2024-02-19T15:30:00.931Z,96922.88
2024-02-19T15:35:06.065Z,96912.97
2024-02-19T15:40:09.833Z,96915.28
2024-02-19T15:45:13.145Z,96910.13
2024-02-19T15:50:17.232Z,96915.03
2024-02-19T15:55:20.278Z,96928.19
2024-02-19T16:00:22.768Z,96917.91
2024-02-19T16:05:25.055Z,96921.19
2024-02-19T16:10:30.014Z,96925.31
2024-02-19T16:15:33.201Z,96917.75
2024-02-19T16:20:36.711Z,96932.75
2024-02-19T16:25:39.526Z,96930.75
2024-02-19T16:30:42.338Z,96940.63
2024-02-19T16:35:46.222Z,96942.63
2024-02-19T16:40:54.044Z,96953.66
2024-02-19T16:45:56.761Z,96942.22
2024-02-19T16:50:59.645Z,96956.66
2024-02-19T16:56:03.934Z,96954.81
2024-02-19T17:01:10.762Z,96960.25
2024-02-19T17:06:14.538Z,96970.94
2024-02-19T17:11:19.191Z,96955.94
2024-02-19T17:16:22.778Z,96978.44
2024-02-19T17:21:26.600Z,96966.22
2024-02-19T17:26:32.238Z,96967.34
2024-02-19T17:31:36.348Z,96980.78
2024-02-19T17:36:40.134Z,96982.28
2024-02-19T17:41:53.802Z,96984.22
2024-02-19T17:47:00.025Z,96968.41
2024-02-19T17:52:03.953Z,96983.19
2024-02-19T17:57:10.149Z,96979.31
2024-02-19T18:02:14.245Z,96975.44
2024-02-19T18:07:17.787Z,96979.91
2024-02-19T18:12:21.148Z,96959.03
2024-02-19T18:17:23.450Z,96971.00
2024-02-19T18:22:25.870Z,96976.53
2024-02-19T18:27:28.727Z,96981.75
2024-02-19T18:32:33.350Z,96965.34
2024-02-19T18:37:36.720Z,96963.03
2024-02-19T18:42:47.577Z,96957.91
2024-02-19T18:47:51.397Z,96975.03
2024-02-19T18:52:54.158Z,96962.47
2024-02-19T18:57:59.226Z,96967.66
2024-02-19T19:03:02.624Z,96962.56
2024-02-19T19:08:05.668Z,96963.63
2024-02-19T19:13:11.940Z,96955.13
2024-02-19T19:18:14.665Z,96957.06
2024-02-19T19:23:17.530Z,96958.59
2024-02-19T19:28:20.293Z,96956.81
2024-02-19T19:33:24.012Z,96970.50
2024-02-19T19:38:26.269Z,96961.19
2024-02-19T19:43:29.109Z,96978.44
2024-02-19T19:48:32.252Z,96983.31
2024-02-19T19:53:35.184Z,96979.31
2024-02-19T19:58:39.282Z,96981.34
2024-02-19T20:03:42.281Z,96976.03
2024-02-19T20:08:48.995Z,96977.56
2024-02-19T20:13:51.790Z,96960.53
2024-02-19T20:18:57.142Z,96968.81
2024-02-19T20:24:02.382Z,96969.22
2024-02-19T20:29:08.105Z,96977.69
2024-02-19T20:34:13.055Z,96977.75
2024-02-19T20:39:16.674Z,96969.25
2024-02-19T20:44:19.050Z,96976.72
2024-02-19T20:49:22.048Z,96966.38
2024-02-19T20:54:26.017Z,96959.75
2024-02-19T20:59:30.316Z,96965.72
2024-02-19T21:04:36.589Z,96954.50
2024-02-19T21:09:39.281Z,96952.56
2024-02-19T21:14:43.113Z,96950.00
2024-02-19T21:19:46.613Z,96962.00
2024-02-19T21:24:49.488Z,96937.41
2024-02-19T21:29:53.071Z,96945.03
2024-02-19T21:34:55.969Z,96953.25
2024-02-19T21:40:00.996Z,96952.19
2024-02-19T21:45:04.964Z,96948.69
2024-02-19T21:50:12.559Z,96952.63
2024-02-19T21:55:15.363Z,96945.13
2024-02-19T22:00:18.597Z,96929.66
2024-02-19T22:05:22.263Z,96937.84
2024-02-19T22:10:25.225Z,96940.09
2024-02-19T22:15:30.092Z,96923.13
2024-02-19T22:20:34.454Z,96919.53
2024-02-19T22:25:36.796Z,96924.78
2024-02-19T22:30:39.489Z,96922.59
2024-02-19T22:35:42.216Z,96915.38
2024-02-19T22:40:45.045Z,96921.19
2024-02-19T22:45:47.418Z,96923.72
2024-02-19T22:50:49.749Z,96933.16
2024-02-19T22:55:52.384Z,96926.00
2024-02-19T23:00:57.349Z,96915.34
2024-02-19T23:06:00.435Z,96920.66
2024-02-19T23:11:03.678Z,96919.03
2024-02-19T23:16:08.521Z,96928.59
2024-02-19T23:21:17.526Z,96919.09
2024-02-19T23:26:20.449Z,96918.53
2024-02-19T23:31:22.699Z,96911.56
2024-02-19T23:36:25.476Z,96912.28
2024-02-19T23:41:30.539Z,96900.97
2024-02-19T23:46:34.154Z,96902.03
2024-02-19T23:51:37.078Z,96907.25
2024-02-19T23:56:39.933Z,96910.63
